sensor_id;sensor_type;location;lat;lon;timestamp;temperature;humidity
65598;SHT31;52267;51.984;20.956;2023-07-02T00:00:00;17.90;81.45
65598;SHT31;52267;51.984;20.956;2023-07-02T00:02:31;17.85;81.51
65598;SHT31;52267;51.984;20.956;2023-07-02T00:04:58;17.81;81.48
65598;SHT31;52267;51.984;20.956;2023-07-02T00:07:25;17.80;81.38
65598;SHT31;52267;51.984;20.956;2023-07-02T00:09:52;17.76;81.28
65598;SHT31;52267;51.984;20.956;2023-07-02T00:12:19;17.72;81.24
65598;SHT31;52267;51.984;20.956;2023-07-02T00:14:46;17.69;81.23
65598;SHT31;52267;51.984;20.956;2023-07-02T00:17:13;17.67;81.21
65598;SHT31;52267;51.984;20.956;2023-07-02T00:19:40;17.64;81.29
65598;SHT31;52267;51.984;20.956;2023-07-02T00:22:08;17.63;81.27
65598;SHT31;52267;51.984;20.956;2023-07-02T00:24:36;17.60;81.37
65598;SHT31;52267;51.984;20.956;2023-07-02T00:27:03;17.58;81.35
65598;SHT31;52267;51.984;20.956;2023-07-02T00:29:30;17.53;81.41
65598;SHT31;52267;51.984;20.956;2023-07-02T00:31:57;17.49;81.59
65598;SHT31;52267;51.984;20.956;2023-07-02T00:34:24;17.45;81.61
65598;SHT31;52267;51.984;20.956;2023-07-02T00:36:52;17.42;81.58
65598;SHT31;52267;51.984;20.956;2023-07-02T00:39:19;17.40;81.54
65598;SHT31;52267;51.984;20.956;2023-07-02T00:41:49;17.35;81.53
65598;SHT31;52267;51.984;20.956;2023-07-02T00:44:16;17.32;81.49
65598;SHT31;52267;51.984;20.956;2023-07-02T00:46:43;17.30;81.52
65598;SHT31;52267;51.984;20.956;2023-07-02T00:49:10;17.27;81.51
65598;SHT31;52267;51.984;20.956;2023-07-02T00:51:38;17.23;81.49
65598;SHT31;52267;51.984;20.956;2023-07-02T00:54:05;17.18;81.40
65598;SHT31;52267;51.984;20.956;2023-07-02T00:56:32;17.15;81.41
65598;SHT31;52267;51.984;20.956;2023-07-02T00:58:59;17.10;81.52
65598;SHT31;52267;51.984;20.956;2023-07-02T01:01:27;17.09;81.53
65598;SHT31;52267;51.984;20.956;2023-07-02T01:06:27;17.07;81.62
65598;SHT31;52267;51.984;20.956;2023-07-02T01:09:07;17.03;81.75
65598;SHT31;52267;51.984;20.956;2023-07-02T01:11:35;17.00;81.77
65598;SHT31;52267;51.984;20.956;2023-07-02T01:14:19;16.98;81.81
65598;SHT31;52267;51.984;20.956;2023-07-02T01:16:52;16.95;81.78
65598;SHT31;52267;51.984;20.956;2023-07-02T01:22:22;16.90;81.79
65598;SHT31;52267;51.984;20.956;2023-07-02T01:24:54;16.88;81.80
65598;SHT31;52267;51.984;20.956;2023-07-02T01:27:24;16.88;81.85
65598;SHT31;52267;51.984;20.956;2023-07-02T01:29:55;16.85;81.95
65598;SHT31;52267;51.984;20.956;2023-07-02T01:32:22;16.83;82.12
65598;SHT31;52267;51.984;20.956;2023-07-02T01:34:49;16.83;82.05
65598;SHT31;52267;51.984;20.956;2023-07-02T01:37:19;16.82;82.20
65598;SHT31;52267;51.984;20.956;2023-07-02T01:39:46;16.81;82.20
65598;SHT31;52267;51.984;20.956;2023-07-02T01:42:14;16.79;82.21
65598;SHT31;52267;51.984;20.956;2023-07-02T01:44:44;16.78;82.19
65598;SHT31;52267;51.984;20.956;2023-07-02T01:47:13;16.77;82.22
65598;SHT31;52267;51.984;20.956;2023-07-02T01:49:42;16.76;82.20
65598;SHT31;52267;51.984;20.956;2023-07-02T01:52:09;16.75;82.22
65598;SHT31;52267;51.984;20.956;2023-07-02T01:54:36;16.71;82.30
65598;SHT31;52267;51.984;20.956;2023-07-02T01:57:03;16.68;82.36
65598;SHT31;52267;51.984;20.956;2023-07-02T01:59:31;16.67;82.34
65598;SHT31;52267;51.984;20.956;2023-07-02T02:01:58;16.65;82.36
65598;SHT31;52267;51.984;20.956;2023-07-02T02:04:25;16.64;82.34
65598;SHT31;52267;51.984;20.956;2023-07-02T02:06:52;16.63;82.36
65598;SHT31;52267;51.984;20.956;2023-07-02T02:09:19;16.58;82.53
65598;SHT31;52267;51.984;20.956;2023-07-02T02:11:48;16.56;82.60
65598;SHT31;52267;51.984;20.956;2023-07-02T02:14:16;16.56;82.63
65598;SHT31;52267;51.984;20.956;2023-07-02T02:16:43;16.58;82.59
65598;SHT31;52267;51.984;20.956;2023-07-02T02:19:13;16.61;82.67
65598;SHT31;52267;51.984;20.956;2023-07-02T02:21:41;16.63;82.73
65598;SHT31;52267;51.984;20.956;2023-07-02T02:24:09;16.65;82.80
65598;SHT31;52267;51.984;20.956;2023-07-02T02:26:36;16.69;82.91
65598;SHT31;52267;51.984;20.956;2023-07-02T02:29:04;16.71;82.90
65598;SHT31;52267;51.984;20.956;2023-07-02T02:31:31;16.73;83.06
65598;SHT31;52267;51.984;20.956;2023-07-02T02:33:58;16.77;83.10
65598;SHT31;52267;51.984;20.956;2023-07-02T02:36:25;16.79;83.11
65598;SHT31;52267;51.984;20.956;2023-07-02T02:38:52;16.84;83.20
65598;SHT31;52267;51.984;20.956;2023-07-02T02:41:19;16.85;83.26
65598;SHT31;52267;51.984;20.956;2023-07-02T02:43:46;16.87;83.49
65598;SHT31;52267;51.984;20.956;2023-07-02T02:46:18;16.86;84.16
65598;SHT31;52267;51.984;20.956;2023-07-02T02:48:48;16.88;83.81
65598;SHT31;52267;51.984;20.956;2023-07-02T02:51:16;16.91;83.74
65598;SHT31;52267;51.984;20.956;2023-07-02T02:53:43;16.92;84.26
65598;SHT31;52267;51.984;20.956;2023-07-02T02:56:09;16.91;84.84
65598;SHT31;52267;51.984;20.956;2023-07-02T02:58:37;16.92;84.86
65598;SHT31;52267;51.984;20.956;2023-07-02T03:01:04;16.91;85.62
65598;SHT31;52267;51.984;20.956;2023-07-02T03:03:39;16.92;85.18
65598;SHT31;52267;51.984;20.956;2023-07-02T03:06:12;16.93;84.98
65598;SHT31;52267;51.984;20.956;2023-07-02T03:08:42;16.91;85.63
65598;SHT31;52267;51.984;20.956;2023-07-02T03:11:09;16.92;85.04
65598;SHT31;52267;51.984;20.956;2023-07-02T03:13:36;16.96;84.93
65598;SHT31;52267;51.984;20.956;2023-07-02T03:16:03;16.97;85.47
65598;SHT31;52267;51.984;20.956;2023-07-02T03:18:30;16.96;85.88
65598;SHT31;52267;51.984;20.956;2023-07-02T03:20:58;16.99;85.64
65598;SHT31;52267;51.984;20.956;2023-07-02T03:23:26;17.01;85.87
65598;SHT31;52267;51.984;20.956;2023-07-02T03:25:53;17.05;85.43
65598;SHT31;52267;51.984;20.956;2023-07-02T03:28:20;17.08;85.32
65598;SHT31;52267;51.984;20.956;2023-07-02T03:30:47;17.11;85.53
65598;SHT31;52267;51.984;20.956;2023-07-02T03:33:14;17.12;85.61
65598;SHT31;52267;51.984;20.956;2023-07-02T03:35:41;17.17;85.67
65598;SHT31;52267;51.984;20.956;2023-07-02T03:38:08;17.21;86.01
65598;SHT31;52267;51.984;20.956;2023-07-02T03:40:35;17.24;85.84
65598;SHT31;52267;51.984;20.956;2023-07-02T03:43:02;17.29;85.60
65598;SHT31;52267;51.984;20.956;2023-07-02T03:45:29;17.36;85.30
65598;SHT31;52267;51.984;20.956;2023-07-02T03:47:56;17.42;85.19
65598;SHT31;52267;51.984;20.956;2023-07-02T03:50:23;17.49;84.91
65598;SHT31;52267;51.984;20.956;2023-07-02T03:52:50;17.55;84.62
65598;SHT31;52267;51.984;20.956;2023-07-02T03:55:19;17.61;84.36
65598;SHT31;52267;51.984;20.956;2023-07-02T03:57:47;17.66;84.21
65598;SHT31;52267;51.984;20.956;2023-07-02T04:00:14;17.71;84.08
65598;SHT31;52267;51.984;20.956;2023-07-02T04:02:41;17.74;83.88
65598;SHT31;52267;51.984;20.956;2023-07-02T04:05:08;17.80;83.71
65598;SHT31;52267;51.984;20.956;2023-07-02T04:07:35;17.84;83.64
65598;SHT31;52267;51.984;20.956;2023-07-02T04:10:02;17.89;83.35
65598;SHT31;52267;51.984;20.956;2023-07-02T04:12:30;17.95;83.25
65598;SHT31;52267;51.984;20.956;2023-07-02T04:14:57;18.01;83.12
65598;SHT31;52267;51.984;20.956;2023-07-02T04:17:24;18.09;82.94
65598;SHT31;52267;51.984;20.956;2023-07-02T04:19:53;18.17;82.84
65598;SHT31;52267;51.984;20.956;2023-07-02T04:22:21;18.25;82.71
65598;SHT31;52267;51.984;20.956;2023-07-02T04:24:49;18.30;82.47
65598;SHT31;52267;51.984;20.956;2023-07-02T04:27:16;18.36;82.30
65598;SHT31;52267;51.984;20.956;2023-07-02T04:29:44;18.43;82.14
65598;SHT31;52267;51.984;20.956;2023-07-02T04:32:11;18.49;82.04
65598;SHT31;52267;51.984;20.956;2023-07-02T04:34:38;18.54;81.83
65598;SHT31;52267;51.984;20.956;2023-07-02T04:37:05;18.57;81.62
65598;SHT31;52267;51.984;20.956;2023-07-02T04:39:32;18.64;81.46
65598;SHT31;52267;51.984;20.956;2023-07-02T04:42:00;18.70;81.28
65598;SHT31;52267;51.984;20.956;2023-07-02T04:44:27;18.74;80.68
65598;SHT31;52267;51.984;20.956;2023-07-02T04:47:00;18.76;80.50
65598;SHT31;52267;51.984;20.956;2023-07-02T04:49:28;18.80;80.38
65598;SHT31;52267;51.984;20.956;2023-07-02T04:51:55;18.83;80.10
65598;SHT31;52267;51.984;20.956;2023-07-02T04:54:22;18.87;79.76
65598;SHT31;52267;51.984;20.956;2023-07-02T04:56:49;18.91;79.41
65598;SHT31;52267;51.984;20.956;2023-07-02T04:59:17;18.94;79.06
65598;SHT31;52267;51.984;20.956;2023-07-02T05:01:43;18.99;79.10
65598;SHT31;52267;51.984;20.956;2023-07-02T05:04:10;19.03;78.70
65598;SHT31;52267;51.984;20.956;2023-07-02T05:06:37;19.10;78.80
65598;SHT31;52267;51.984;20.956;2023-07-02T05:09:04;19.18;78.61
65598;SHT31;52267;51.984;20.956;2023-07-02T05:11:31;19.23;78.59
65598;SHT31;52267;51.984;20.956;2023-07-02T05:13:58;19.28;78.47
65598;SHT31;52267;51.984;20.956;2023-07-02T05:16:26;19.28;78.14
65598;SHT31;52267;51.984;20.956;2023-07-02T05:18:53;19.32;78.35
65598;SHT31;52267;51.984;20.956;2023-07-02T05:21:20;19.34;78.05
65598;SHT31;52267;51.984;20.956;2023-07-02T05:23:47;19.37;78.01
65598;SHT31;52267;51.984;20.956;2023-07-02T05:26:15;19.41;77.78
65598;SHT31;52267;51.984;20.956;2023-07-02T05:28:42;19.45;77.51
65598;SHT31;52267;51.984;20.956;2023-07-02T05:31:10;19.54;77.39
65598;SHT31;52267;51.984;20.956;2023-07-02T05:33:38;19.59;76.91
65598;SHT31;52267;51.984;20.956;2023-07-02T05:36:05;19.64;76.65
65598;SHT31;52267;51.984;20.956;2023-07-02T05:38:32;19.69;76.52
65598;SHT31;52267;51.984;20.956;2023-07-02T05:40:59;19.74;76.39
65598;SHT31;52267;51.984;20.956;2023-07-02T05:43:26;19.82;76.44
65598;SHT31;52267;51.984;20.956;2023-07-02T05:45:53;19.89;76.22
65598;SHT31;52267;51.984;20.956;2023-07-02T05:48:20;19.91;76.10
65598;SHT31;52267;51.984;20.956;2023-07-02T05:50:47;19.93;75.56
65598;SHT31;52267;51.984;20.956;2023-07-02T05:53:14;19.98;75.54
65598;SHT31;52267;51.984;20.956;2023-07-02T05:55:41;20.03;75.52
65598;SHT31;52267;51.984;20.956;2023-07-02T05:58:10;20.05;75.12
65598;SHT31;52267;51.984;20.956;2023-07-02T06:00:37;20.11;75.19
65598;SHT31;52267;51.984;20.956;2023-07-02T06:03:05;20.16;74.85
65598;SHT31;52267;51.984;20.956;2023-07-02T06:05:32;20.20;74.83
65598;SHT31;52267;51.984;20.956;2023-07-02T06:07:59;20.23;74.53
65598;SHT31;52267;51.984;20.956;2023-07-02T06:10:26;20.27;74.44
65598;SHT31;52267;51.984;20.956;2023-07-02T06:12:53;20.29;74.01
65598;SHT31;52267;51.984;20.956;2023-07-02T06:15:20;20.32;73.91
65598;SHT31;52267;51.984;20.956;2023-07-02T06:17:48;20.32;73.33
65598;SHT31;52267;51.984;20.956;2023-07-02T06:20:15;20.33;73.04
65598;SHT31;52267;51.984;20.956;2023-07-02T06:22:42;20.38;73.03
65598;SHT31;52267;51.984;20.956;2023-07-02T06:25:09;20.44;72.71
65598;SHT31;52267;51.984;20.956;2023-07-02T06:27:36;20.52;72.56
65598;SHT31;52267;51.984;20.956;2023-07-02T06:30:03;20.56;71.81
65598;SHT31;52267;51.984;20.956;2023-07-02T06:32:32;20.59;71.03
65598;SHT31;52267;51.984;20.956;2023-07-02T06:34:59;20.58;71.06
65598;SHT31;52267;51.984;20.956;2023-07-02T06:37:26;20.62;70.93
65598;SHT31;52267;51.984;20.956;2023-07-02T06:39:53;20.68;70.54
65598;SHT31;52267;51.984;20.956;2023-07-02T06:42:20;20.72;70.47
65598;SHT31;52267;51.984;20.956;2023-07-02T06:44:47;20.75;70.36
65598;SHT31;52267;51.984;20.956;2023-07-02T06:47:14;20.78;70.33
65598;SHT31;52267;51.984;20.956;2023-07-02T06:49:41;20.83;69.83
65598;SHT31;52267;51.984;20.956;2023-07-02T06:52:08;20.87;69.74
65598;SHT31;52267;51.984;20.956;2023-07-02T06:54:35;20.97;69.92
65598;SHT31;52267;51.984;20.956;2023-07-02T06:57:02;21.01;69.78
65598;SHT31;52267;51.984;20.956;2023-07-02T06:59:30;21.11;70.01
65598;SHT31;52267;51.984;20.956;2023-07-02T07:01:57;21.18;69.27
65598;SHT31;52267;51.984;20.956;2023-07-02T07:04:24;21.24;69.08
65598;SHT31;52267;51.984;20.956;2023-07-02T07:06:51;21.30;68.33
65598;SHT31;52267;51.984;20.956;2023-07-02T07:09:19;21.32;68.52
65598;SHT31;52267;51.984;20.956;2023-07-02T07:11:46;21.42;69.07
65598;SHT31;52267;51.984;20.956;2023-07-02T07:14:13;21.50;68.82
65598;SHT31;52267;51.984;20.956;2023-07-02T07:16:40;21.50;68.60
65598;SHT31;52267;51.984;20.956;2023-07-02T07:19:07;21.51;68.65
65598;SHT31;52267;51.984;20.956;2023-07-02T07:21:34;21.52;68.30
65598;SHT31;52267;51.984;20.956;2023-07-02T07:24:09;21.53;68.04
65598;SHT31;52267;51.984;20.956;2023-07-02T07:26:36;21.57;68.36
65598;SHT31;52267;51.984;20.956;2023-07-02T07:29:03;21.60;68.25
65598;SHT31;52267;51.984;20.956;2023-07-02T07:31:31;21.61;67.75
65598;SHT31;52267;51.984;20.956;2023-07-02T07:33:58;21.65;68.13
65598;SHT31;52267;51.984;20.956;2023-07-02T07:36:25;21.76;68.28
65598;SHT31;52267;51.984;20.956;2023-07-02T07:38:52;21.87;68.20
65598;SHT31;52267;51.984;20.956;2023-07-02T07:41:19;21.91;68.11
65598;SHT31;52267;51.984;20.956;2023-07-02T07:43:46;21.85;67.45
65598;SHT31;52267;51.984;20.956;2023-07-02T07:46:13;21.81;67.70
65598;SHT31;52267;51.984;20.956;2023-07-02T07:48:40;21.80;67.54
65598;SHT31;52267;51.984;20.956;2023-07-02T07:51:07;21.83;67.87
65598;SHT31;52267;51.984;20.956;2023-07-02T07:53:37;21.93;67.57
65598;SHT31;52267;51.984;20.956;2023-07-02T07:56:08;22.07;67.56
65598;SHT31;52267;51.984;20.956;2023-07-02T07:58:35;22.17;67.43
65598;SHT31;52267;51.984;20.956;2023-07-02T08:01:02;22.19;66.44
65598;SHT31;52267;51.984;20.956;2023-07-02T08:03:29;22.14;66.50
65598;SHT31;52267;51.984;20.956;2023-07-02T08:05:56;22.12;66.54
65598;SHT31;52267;51.984;20.956;2023-07-02T08:08:23;22.16;66.94
65598;SHT31;52267;51.984;20.956;2023-07-02T08:10:50;22.31;66.81
65598;SHT31;52267;51.984;20.956;2023-07-02T08:13:17;22.45;65.63
65598;SHT31;52267;51.984;20.956;2023-07-02T08:15:44;22.59;65.20
65598;SHT31;52267;51.984;20.956;2023-07-02T08:18:11;22.63;64.85
65598;SHT31;52267;51.984;20.956;2023-07-02T08:20:40;22.62;65.42
65598;SHT31;52267;51.984;20.956;2023-07-02T08:23:07;22.60;65.07
65598;SHT31;52267;51.984;20.956;2023-07-02T08:25:34;22.53;65.25
65598;SHT31;52267;51.984;20.956;2023-07-02T08:28:01;22.45;64.88
65598;SHT31;52267;51.984;20.956;2023-07-02T08:30:28;22.46;65.47
65598;SHT31;52267;51.984;20.956;2023-07-02T08:32:55;22.46;65.37
65598;SHT31;52267;51.984;20.956;2023-07-02T08:35:22;22.44;65.46
65598;SHT31;52267;51.984;20.956;2023-07-02T08:37:49;22.44;65.18
65598;SHT31;52267;51.984;20.956;2023-07-02T08:40:17;22.40;65.32
65598;SHT31;52267;51.984;20.956;2023-07-02T08:42:46;22.34;65.39
65598;SHT31;52267;51.984;20.956;2023-07-02T08:45:16;22.29;65.68
65598;SHT31;52267;51.984;20.956;2023-07-02T08:47:44;22.25;65.71
65598;SHT31;52267;51.984;20.956;2023-07-02T08:50:12;22.15;66.05
65598;SHT31;52267;51.984;20.956;2023-07-02T08:52:40;22.07;66.12
65598;SHT31;52267;51.984;20.956;2023-07-02T08:55:09;22.00;66.27
65598;SHT31;52267;51.984;20.956;2023-07-02T08:57:36;21.96;66.50
65598;SHT31;52267;51.984;20.956;2023-07-02T09:00:09;22.03;66.74
65598;SHT31;52267;51.984;20.956;2023-07-02T09:02:39;22.13;66.72
65598;SHT31;52267;51.984;20.956;2023-07-02T09:05:06;22.27;66.30
65598;SHT31;52267;51.984;20.956;2023-07-02T09:07:43;22.32;66.24
65598;SHT31;52267;51.984;20.956;2023-07-02T09:13:04;22.45;66.29
65598;SHT31;52267;51.984;20.956;2023-07-02T09:15:36;22.49;66.15
65598;SHT31;52267;51.984;20.956;2023-07-02T09:18:41;22.34;66.31
65598;SHT31;52267;51.984;20.956;2023-07-02T09:21:01;22.15;66.70
65598;SHT31;52267;51.984;20.956;2023-07-02T09:23:34;21.95;67.54
65598;SHT31;52267;51.984;20.956;2023-07-02T09:26:02;21.72;68.44
65598;SHT31;52267;51.984;20.956;2023-07-02T09:28:29;21.62;69.04
65598;SHT31;52267;51.984;20.956;2023-07-02T09:30:57;21.58;69.11
65598;SHT31;52267;51.984;20.956;2023-07-02T09:33:25;21.55;69.57
65598;SHT31;52267;51.984;20.956;2023-07-02T09:35:54;21.53;69.61
65598;SHT31;52267;51.984;20.956;2023-07-02T09:38:22;21.51;69.43
65598;SHT31;52267;51.984;20.956;2023-07-02T09:40:50;21.47;69.64
65598;SHT31;52267;51.984;20.956;2023-07-02T09:43:21;21.55;69.38
65598;SHT31;52267;51.984;20.956;2023-07-02T09:45:50;21.68;69.09
65598;SHT31;52267;51.984;20.956;2023-07-02T09:48:19;21.88;68.72
65598;SHT31;52267;51.984;20.956;2023-07-02T09:50:54;22.08;68.51
65598;SHT31;52267;51.984;20.956;2023-07-02T09:53:26;22.15;68.22
65598;SHT31;52267;51.984;20.956;2023-07-02T09:55:55;22.22;67.91
65598;SHT31;52267;51.984;20.956;2023-07-02T09:58:22;22.30;67.34
65598;SHT31;52267;51.984;20.956;2023-07-02T10:00:49;22.42;66.77
65598;SHT31;52267;51.984;20.956;2023-07-02T10:03:16;22.49;66.21
65598;SHT31;52267;51.984;20.956;2023-07-02T10:05:44;22.58;66.14
65598;SHT31;52267;51.984;20.956;2023-07-02T10:08:15;22.67;66.04
65598;SHT31;52267;51.984;20.956;2023-07-02T10:10:48;22.78;65.89
65598;SHT31;52267;51.984;20.956;2023-07-02T10:13:15;22.93;65.31
65598;SHT31;52267;51.984;20.956;2023-07-02T10:16:00;23.14;64.52
65598;SHT31;52267;51.984;20.956;2023-07-02T10:18:28;23.25;64.17
65598;SHT31;52267;51.984;20.956;2023-07-02T10:20:55;23.36;64.11
65598;SHT31;52267;51.984;20.956;2023-07-02T10:23:35;23.40;63.45
65598;SHT31;52267;51.984;20.956;2023-07-02T10:26:16;23.40;63.40
65598;SHT31;52267;51.984;20.956;2023-07-02T10:28:57;23.41;63.72
65598;SHT31;52267;51.984;20.956;2023-07-02T10:31:26;23.42;63.90
65598;SHT31;52267;51.984;20.956;2023-07-02T10:33:53;23.37;64.25
65598;SHT31;52267;51.984;20.956;2023-07-02T10:36:21;23.40;64.31
65598;SHT31;52267;51.984;20.956;2023-07-02T10:38:50;23.41;63.88
65598;SHT31;52267;51.984;20.956;2023-07-02T10:41:28;23.51;63.71
65598;SHT31;52267;51.984;20.956;2023-07-02T10:44:08;23.57;63.04
65598;SHT31;52267;51.984;20.956;2023-07-02T10:46:48;23.77;62.75
65598;SHT31;52267;51.984;20.956;2023-07-02T10:49:16;23.98;62.14
65598;SHT31;52267;51.984;20.956;2023-07-02T10:51:56;24.28;61.97
65598;SHT31;52267;51.984;20.956;2023-07-02T10:54:23;24.35;61.12
65598;SHT31;52267;51.984;20.956;2023-07-02T10:56:50;24.34;60.36
65598;SHT31;52267;51.984;20.956;2023-07-02T10:59:24;24.36;60.62
65598;SHT31;52267;51.984;20.956;2023-07-02T11:01:51;24.40;60.64
65598;SHT31;52267;51.984;20.956;2023-07-02T11:04:18;24.44;59.95
65598;SHT31;52267;51.984;20.956;2023-07-02T11:06:45;24.45;60.23
65598;SHT31;52267;51.984;20.956;2023-07-02T11:09:17;24.40;59.99
65598;SHT31;52267;51.984;20.956;2023-07-02T11:12:18;24.41;59.76
65598;SHT31;52267;51.984;20.956;2023-07-02T11:14:37;24.41;58.99
65598;SHT31;52267;51.984;20.956;2023-07-02T11:17:09;24.41;58.76
65598;SHT31;52267;51.984;20.956;2023-07-02T11:19:36;24.42;59.54
65598;SHT31;52267;51.984;20.956;2023-07-02T11:22:03;24.28;59.12
65598;SHT31;52267;51.984;20.956;2023-07-02T11:27:01;23.95;58.72
65598;SHT31;52267;51.984;20.956;2023-07-02T11:29:30;23.99;59.00
65598;SHT31;52267;51.984;20.956;2023-07-02T11:32:07;24.08;59.05
65598;SHT31;52267;51.984;20.956;2023-07-02T11:34:38;24.15;59.06
65598;SHT31;52267;51.984;20.956;2023-07-02T11:37:05;24.11;59.45
65598;SHT31;52267;51.984;20.956;2023-07-02T11:39:32;24.11;59.41
65598;SHT31;52267;51.984;20.956;2023-07-02T11:41:59;24.02;59.76
65598;SHT31;52267;51.984;20.956;2023-07-02T11:44:26;23.90;59.43
65598;SHT31;52267;51.984;20.956;2023-07-02T11:46:53;23.66;59.98
65598;SHT31;52267;51.984;20.956;2023-07-02T11:49:23;23.52;60.40
65598;SHT31;52267;51.984;20.956;2023-07-02T11:51:50;23.33;60.64
65598;SHT31;52267;51.984;20.956;2023-07-02T11:54:17;23.20;61.22
65598;SHT31;52267;51.984;20.956;2023-07-02T11:56:45;23.12;61.56
65598;SHT31;52267;51.984;20.956;2023-07-02T11:59:12;23.06;61.85
65598;SHT31;52267;51.984;20.956;2023-07-02T12:01:39;22.96;61.86
65598;SHT31;52267;51.984;20.956;2023-07-02T12:04:06;22.89;61.95
65598;SHT31;52267;51.984;20.956;2023-07-02T12:06:34;22.84;61.83
65598;SHT31;52267;51.984;20.956;2023-07-02T12:09:01;22.82;61.68
65598;SHT31;52267;51.984;20.956;2023-07-02T12:11:28;22.80;61.69
65598;SHT31;52267;51.984;20.956;2023-07-02T12:13:55;22.82;61.59
65598;SHT31;52267;51.984;20.956;2023-07-02T12:16:22;22.94;61.84
65598;SHT31;52267;51.984;20.956;2023-07-02T12:18:49;23.15;61.31
65598;SHT31;52267;51.984;20.956;2023-07-02T12:21:16;23.33;60.82
65598;SHT31;52267;51.984;20.956;2023-07-02T12:23:45;23.43;60.51
65598;SHT31;52267;51.984;20.956;2023-07-02T12:26:12;23.60;60.35
65598;SHT31;52267;51.984;20.956;2023-07-02T12:28:39;24.07;59.78
65598;SHT31;52267;51.984;20.956;2023-07-02T12:31:06;24.60;58.36
65598;SHT31;52267;51.984;20.956;2023-07-02T12:33:33;25.08;57.36
65598;SHT31;52267;51.984;20.956;2023-07-02T12:36:00;25.43;55.41
65598;SHT31;52267;51.984;20.956;2023-07-02T12:38:27;25.51;54.48
65598;SHT31;52267;51.984;20.956;2023-07-02T12:40:54;25.28;54.22
65598;SHT31;52267;51.984;20.956;2023-07-02T12:43:21;25.06;53.90
65598;SHT31;52267;51.984;20.956;2023-07-02T12:45:49;24.93;54.41
65598;SHT31;52267;51.984;20.956;2023-07-02T12:48:16;25.00;54.47
65598;SHT31;52267;51.984;20.956;2023-07-02T12:50:52;25.17;54.23
65598;SHT31;52267;51.984;20.956;2023-07-02T12:53:21;25.15;54.34
65598;SHT31;52267;51.984;20.956;2023-07-02T12:55:48;25.14;53.18
65598;SHT31;52267;51.984;20.956;2023-07-02T12:58:15;25.05;52.86
65598;SHT31;52267;51.984;20.956;2023-07-02T13:00:42;24.97;53.53
65598;SHT31;52267;51.984;20.956;2023-07-02T13:03:10;25.09;53.24
65598;SHT31;52267;51.984;20.956;2023-07-02T13:05:39;25.26;52.76
65598;SHT31;52267;51.984;20.956;2023-07-02T13:08:06;25.58;52.66
65598;SHT31;52267;51.984;20.956;2023-07-02T13:10:34;25.67;52.45
65598;SHT31;52267;51.984;20.956;2023-07-02T13:13:01;26.00;52.53
65598;SHT31;52267;51.984;20.956;2023-07-02T13:15:31;26.10;52.13
65598;SHT31;52267;51.984;20.956;2023-07-02T13:17:58;25.95;51.38
65598;SHT31;52267;51.984;20.956;2023-07-02T13:20:26;25.74;49.88
65598;SHT31;52267;51.984;20.956;2023-07-02T13:22:53;25.70;48.77
65598;SHT31;52267;51.984;20.956;2023-07-02T13:25:20;25.66;49.06
65598;SHT31;52267;51.984;20.956;2023-07-02T13:27:48;25.58;48.42
65598;SHT31;52267;51.984;20.956;2023-07-02T13:30:15;25.45;48.56
65598;SHT31;52267;51.984;20.956;2023-07-02T13:32:42;25.45;47.84
65598;SHT31;52267;51.984;20.956;2023-07-02T13:35:10;25.33;48.52
65598;SHT31;52267;51.984;20.956;2023-07-02T13:37:37;25.22;48.84
65598;SHT31;52267;51.984;20.956;2023-07-02T13:40:05;25.15;49.28
65598;SHT31;52267;51.984;20.956;2023-07-02T13:42:35;24.97;47.96
65598;SHT31;52267;51.984;20.956;2023-07-02T13:45:02;24.74;47.94
65598;SHT31;52267;51.984;20.956;2023-07-02T13:47:30;24.64;48.38
65598;SHT31;52267;51.984;20.956;2023-07-02T13:49:57;24.62;48.78
65598;SHT31;52267;51.984;20.956;2023-07-02T13:52:24;24.60;48.64
65598;SHT31;52267;51.984;20.956;2023-07-02T13:54:52;24.57;48.50
65598;SHT31;52267;51.984;20.956;2023-07-02T13:57:19;24.48;48.49
65598;SHT31;52267;51.984;20.956;2023-07-02T13:59:46;24.48;49.53
65598;SHT31;52267;51.984;20.956;2023-07-02T14:02:14;24.43;49.62
65598;SHT31;52267;51.984;20.956;2023-07-02T14:04:41;24.38;49.96
65598;SHT31;52267;51.984;20.956;2023-07-02T14:07:09;24.35;49.82
65598;SHT31;52267;51.984;20.956;2023-07-02T14:09:36;24.20;48.75
65598;SHT31;52267;51.984;20.956;2023-07-02T14:12:04;24.01;48.23
65598;SHT31;52267;51.984;20.956;2023-07-02T14:14:31;23.85;48.47
65598;SHT31;52267;51.984;20.956;2023-07-02T14:16:58;23.71;48.52
65598;SHT31;52267;51.984;20.956;2023-07-02T14:19:26;23.65;49.12
65598;SHT31;52267;51.984;20.956;2023-07-02T14:21:53;23.63;49.56
65598;SHT31;52267;51.984;20.956;2023-07-02T14:24:20;23.57;49.65
65598;SHT31;52267;51.984;20.956;2023-07-02T14:26:48;23.55;50.31
65598;SHT31;52267;51.984;20.956;2023-07-02T14:29:15;23.52;50.26
65598;SHT31;52267;51.984;20.956;2023-07-02T14:31:43;23.48;50.18
65598;SHT31;52267;51.984;20.956;2023-07-02T14:34:10;23.46;49.86
65598;SHT31;52267;51.984;20.956;2023-07-02T14:36:37;23.55;50.25
65598;SHT31;52267;51.984;20.956;2023-07-02T14:39:04;23.69;50.44
65598;SHT31;52267;51.984;20.956;2023-07-02T14:41:35;23.86;49.81
65598;SHT31;52267;51.984;20.956;2023-07-02T14:44:02;23.86;49.42
65598;SHT31;52267;51.984;20.956;2023-07-02T14:46:30;23.83;49.81
65598;SHT31;52267;51.984;20.956;2023-07-02T14:48:58;23.78;49.63
65598;SHT31;52267;51.984;20.956;2023-07-02T14:51:25;23.75;49.97
65598;SHT31;52267;51.984;20.956;2023-07-02T14:53:52;23.75;50.04
65598;SHT31;52267;51.984;20.956;2023-07-02T14:56:19;23.73;50.09
65598;SHT31;52267;51.984;20.956;2023-07-02T14:58:46;23.72;50.64
65598;SHT31;52267;51.984;20.956;2023-07-02T15:01:13;23.72;50.80
65598;SHT31;52267;51.984;20.956;2023-07-02T15:03:40;23.67;50.91
65598;SHT31;52267;51.984;20.956;2023-07-02T15:06:14;23.65;51.34
65598;SHT31;52267;51.984;20.956;2023-07-02T15:08:45;23.58;50.91
65598;SHT31;52267;51.984;20.956;2023-07-02T15:11:13;23.50;51.11
65598;SHT31;52267;51.984;20.956;2023-07-02T15:13:41;23.44;51.62
65598;SHT31;52267;51.984;20.956;2023-07-02T15:16:09;23.43;51.84
65598;SHT31;52267;51.984;20.956;2023-07-02T15:18:36;23.39;51.98
65598;SHT31;52267;51.984;20.956;2023-07-02T15:21:04;23.31;51.93
65598;SHT31;52267;51.984;20.956;2023-07-02T15:23:31;23.23;52.04
65598;SHT31;52267;51.984;20.956;2023-07-02T15:26:00;23.17;52.13
65598;SHT31;52267;51.984;20.956;2023-07-02T15:28:29;23.12;52.23
65598;SHT31;52267;51.984;20.956;2023-07-02T15:31:01;23.09;52.48